Time;durP1;ratioP1;P1;durP2;ratioP2;P2;SDS_P1;SDS_P2;PMS_P1;PMS_P2;Temp;Humidity;BMP_temperature;BMP_pressure;BME280_temperature;BME280_humidity;BME280_pressure;Samples;Min_cycle;Max_cycle;Signal;HPM_P1;HPM_P2
2021/11/18 00:00:45;;;;;;;46.33;18.45;;;7.00;99.90;;;;;;5109610;28;20081;-46
2021/11/18 00:03:13;;;;;;;44.00;19.33;;;6.90;99.90;;;;;;5109435;28;20030;-47
2021/11/18 00:05:39;;;;;;;56.15;19.83;;;6.90;99.90;;;;;;5110757;28;20080;-47
2021/11/18 00:08:05;;;;;;;47.70;18.40;;;6.90;99.90;;;;;;5110245;28;20011;-48
2021/11/18 00:10:39;;;;;;;54.83;17.83;;;6.80;99.90;;;;;;5110609;28;20107;-49
2021/11/18 00:13:07;;;;;;;44.25;18.08;;;6.80;99.90;;;;;;5110637;28;20035;-46
2021/11/18 00:15:34;;;;;;;45.78;19.02;;;6.80;99.90;;;;;;5111160;28;20064;-47
2021/11/18 00:18:03;;;;;;;49.78;18.67;;;6.80;99.90;;;;;;5110394;28;20035;-47
2021/11/18 00:20:32;;;;;;;41.22;18.25;;;6.80;99.90;;;;;;5110790;27;20027;-46
2021/11/18 00:22:58;;;;;;;43.33;17.17;;;6.80;99.90;;;;;;5110577;28;20031;-46
2021/11/18 00:25:24;;;;;;;44.85;17.88;;;6.80;99.90;;;;;;5102725;28;20027;-46
2021/11/18 00:27:50;;;;;;;45.05;19.15;;;6.70;99.90;;;;;;5101723;28;20019;-46
2021/11/18 00:30:17;;;;;;;47.20;17.77;;;6.70;99.90;;;;;;5109057;28;20028;-48
2021/11/18 00:32:43;;;;;;;44.38;17.58;;;6.70;99.90;;;;;;5110424;28;20489;-47
2021/11/18 00:35:15;;;;;;;51.63;18.25;;;6.70;99.90;;;;;;5110352;28;20442;-47
2021/11/18 00:37:41;;;;;;;52.65;18.88;;;6.70;99.90;;;;;;5107601;28;20059;-48
2021/11/18 00:40:07;;;;;;;41.92;17.50;;;6.70;99.90;;;;;;5108748;28;20032;-46
2021/11/18 00:42:34;;;;;;;39.70;17.50;;;6.70;99.90;;;;;;5110241;28;20031;-46
2021/11/18 00:45:00;;;;;;;47.28;17.33;;;6.70;99.90;;;;;;5110055;27;20073;-46
2021/11/18 00:47:25;;;;;;;49.97;18.33;;;6.70;99.90;;;;;;5109469;28;20024;-49
2021/11/18 00:49:52;;;;;;;54.05;18.52;;;6.60;99.90;;;;;;5110162;28;20022;-49
2021/11/18 00:52:20;;;;;;;38.00;16.98;;;6.70;99.90;;;;;;5110093;28;20059;-46
2021/11/18 00:54:46;;;;;;;43.70;16.42;;;6.70;99.90;;;;;;5101799;28;20067;-47
2021/11/18 00:57:12;;;;;;;48.90;18.10;;;6.70;99.90;;;;;;5092675;28;20131;-47
2021/11/18 00:59:37;;;;;;;35.13;16.02;;;6.70;99.90;;;;;;5109779;28;20099;-46
2021/11/18 01:02:03;;;;;;;45.00;16.48;;;6.70;99.90;;;;;;5109991;27;20073;-47
2021/11/18 01:04:30;;;;;;;44.92;17.02;;;6.70;99.90;;;;;;5109937;28;20039;-49
2021/11/18 01:06:56;;;;;;;45.35;15.95;;;6.70;99.90;;;;;;5109809;28;20044;-46
2021/11/18 01:09:22;;;;;;;46.45;16.55;;;6.70;99.90;;;;;;5109441;28;20027;-47
2021/11/18 01:11:47;;;;;;;42.63;17.00;;;6.80;99.90;;;;;;5109473;28;20334;-48
2021/11/18 01:14:15;;;;;;;48.33;15.98;;;6.80;99.90;;;;;;5108264;28;20082;-47
2021/11/18 01:16:42;;;;;;;51.47;17.25;;;6.80;99.90;;;;;;5109731;28;20072;-47
2021/11/18 01:19:08;;;;;;;44.78;16.20;;;6.80;99.90;;;;;;5109096;28;20023;-49
2021/11/18 01:21:36;;;;;;;43.05;14.80;;;6.80;99.90;;;;;;5109440;28;20031;-49
2021/11/18 01:24:02;;;;;;;58.42;16.92;;;6.80;99.90;;;;;;5109493;28;20024;-47
2021/11/18 01:26:28;;;;;;;36.67;14.82;;;6.70;99.90;;;;;;5100350;28;20024;-46
2021/11/18 01:28:53;;;;;;;49.78;16.95;;;6.70;99.90;;;;;;5103406;28;20472;-46
2021/11/18 01:31:20;;;;;;;35.08;14.73;;;6.70;99.90;;;;;;5109960;28;20032;-47
2021/11/18 01:33:47;;;;;;;43.17;14.38;;;6.70;99.90;;;;;;5108415;28;20038;-47
2021/11/18 01:36:13;;;;;;;44.90;14.98;;;6.80;99.90;;;;;;5109261;28;20027;-47
2021/11/18 01:38:38;;;;;;;46.28;15.05;;;6.80;99.90;;;;;;5090477;28;20080;-46
2021/11/18 01:41:09;;;;;;;51.30;16.85;;;6.70;99.90;;;;;;5089873;28;20043;-46
2021/11/18 01:43:40;;;;;;;42.38;14.95;;;6.80;99.90;;;;;;5090947;28;20040;-46
2021/11/18 01:46:08;;;;;;;39.88;15.85;;;6.80;99.90;;;;;;5090437;28;20028;-47
2021/11/18 01:48:34;;;;;;;44.50;14.52;;;6.80;99.90;;;;;;5089410;28;20078;-46
2021/11/18 01:51:02;;;;;;;38.97;15.52;;;6.70;99.90;;;;;;5089222;28;20059;-46
2021/11/18 01:53:36;;;;;;;42.65;15.98;;;6.70;99.90;;;;;;5089746;28;20059;-46
2021/11/18 01:56:05;;;;;;;49.20;17.10;;;6.70;99.90;;;;;;5097589;28;20019;-47
2021/11/18 01:58:30;;;;;;;37.97;14.82;;;6.70;99.90;;;;;;5102603;28;20028;-47
2021/11/18 02:00:58;;;;;;;40.47;16.25;;;6.70;99.90;;;;;;5110591;28;20098;-49
2021/11/18 02:03:24;;;;;;;44.88;15.10;;;6.70;99.90;;;;;;5110643;28;20467;-46
2021/11/18 02:06:03;;;;;;;38.60;14.95;;;6.80;99.90;;;;;;5110585;28;20019;-49
2021/11/18 02:08:29;;;;;;;40.28;15.10;;;6.80;99.90;;;;;;5109820;28;20654;-47
2021/11/18 02:10:57;;;;;;;48.33;14.52;;;6.70;99.90;;;;;;5110072;28;20029;-48
2021/11/18 02:13:24;;;;;;;39.97;15.27;;;6.70;99.90;;;;;;5110147;28;20027;-46
2021/11/18 02:15:56;;;;;;;41.25;14.65;;;6.70;99.90;;;;;;5110584;28;20024;-49
2021/11/18 02:18:28;;;;;;;31.45;14.30;;;6.60;99.90;;;;;;5110411;28;20020;-46
2021/11/18 02:20:57;;;;;;;40.60;13.80;;;6.60;99.90;;;;;;5110777;28;20381;-45
2021/11/18 02:23:29;;;;;;;42.50;14.90;;;6.70;99.90;;;;;;5110810;28;20031;-45
2021/11/18 02:25:55;;;;;;;43.40;14.45;;;6.60;99.90;;;;;;5106372;28;20026;-47
2021/11/18 02:28:24;;;;;;;43.55;14.50;;;6.60;99.90;;;;;;5101371;28;20020;-47
2021/11/18 02:30:51;;;;;;;41.22;14.38;;;6.60;99.90;;;;;;5109962;28;20411;-47
2021/11/18 02:33:17;;;;;;;47.10;15.25;;;6.70;99.90;;;;;;5110442;28;20092;-46
2021/11/18 02:35:44;;;;;;;39.88;15.43;;;6.70;99.90;;;;;;5110406;28;20038;-46
2021/11/18 02:38:11;;;;;;;38.90;13.80;;;6.70;99.90;;;;;;5110324;28;20420;-46
2021/11/18 02:40:37;;;;;;;43.92;14.95;;;6.70;99.90;;;;;;5109338;28;20126;-46
2021/11/18 02:43:05;;;;;;;44.15;15.10;;;6.80;99.90;;;;;;5110034;28;20020;-46
2021/11/18 02:45:34;;;;;;;45.45;16.15;;;6.80;99.90;;;;;;5110041;28;20054;-46
2021/11/18 02:48:00;;;;;;;49.40;15.18;;;6.70;99.90;;;;;;5110157;28;20019;-45
2021/11/18 02:50:34;;;;;;;45.63;15.10;;;6.70;99.90;;;;;;5109518;28;20019;-45
2021/11/18 02:53:01;;;;;;;37.83;14.02;;;6.80;99.90;;;;;;5110086;28;20034;-46
2021/11/18 02:55:30;;;;;;;41.50;15.02;;;6.80;99.90;;;;;;5102485;28;20032;-47
2021/11/18 02:57:56;;;;;;;40.17;13.98;;;6.90;99.90;;;;;;5101291;28;20036;-50
2021/11/18 03:00:26;;;;;;;42.17;15.70;;;6.90;99.90;;;;;;5111599;28;20034;-46
2021/11/18 03:02:52;;;;;;;39.55;14.27;;;6.90;99.90;;;;;;5113940;28;20031;-47
2021/11/18 03:05:18;;;;;;;41.22;14.38;;;6.90;99.90;;;;;;5113908;28;20545;-47
2021/11/18 03:07:45;;;;;;;40.78;13.65;;;6.90;99.90;;;;;;5114042;28;20026;-48
2021/11/18 03:10:11;;;;;;;37.90;13.52;;;6.90;99.90;;;;;;5112978;28;20015;-46
2021/11/18 03:12:37;;;;;;;40.90;14.95;;;6.90;99.90;;;;;;5112210;28;20030;-48
2021/11/18 03:15:06;;;;;;;33.95;13.43;;;6.90;99.90;;;;;;5113811;28;20549;-47
2021/11/18 03:17:31;;;;;;;40.92;15.50;;;6.90;99.90;;;;;;5113705;28;20024;-47
2021/11/18 03:19:57;;;;;;;42.15;13.75;;;6.90;99.90;;;;;;5113173;28;20028;-47
2021/11/18 03:22:24;;;;;;;44.90;14.82;;;6.90;99.90;;;;;;5113677;28;20015;-46
2021/11/18 03:24:49;;;;;;;42.70;14.60;;;6.90;99.90;;;;;;5111853;28;20030;-47
2021/11/18 03:27:15;;;;;;;37.00;13.50;;;6.80;99.90;;;;;;5103439;28;20099;-46
2021/11/18 03:29:40;;;;;;;51.72;15.38;;;6.90;99.90;;;;;;5112635;28;20034;-48
2021/11/18 03:32:06;;;;;;;34.90;14.07;;;6.90;99.90;;;;;;5112137;28;20476;-50
2021/11/18 03:34:33;;;;;;;42.88;14.35;;;6.80;99.90;;;;;;5113038;28;20496;-50
2021/11/18 03:36:58;;;;;;;34.30;13.77;;;6.90;99.90;;;;;;5113325;28;20504;-48
2021/11/18 03:39:25;;;;;;;42.10;14.48;;;6.90;99.90;;;;;;5111203;28;20076;-47
2021/11/18 03:41:54;;;;;;;37.78;14.35;;;6.80;99.90;;;;;;5112980;28;20036;-47
2021/11/18 03:44:23;;;;;;;44.40;14.32;;;6.90;99.90;;;;;;5111098;28;20031;-49
2021/11/18 03:46:55;;;;;;;35.80;14.85;;;6.90;99.90;;;;;;5113058;28;20034;-47
2021/11/18 03:49:23;;;;;;;47.28;16.27;;;6.90;99.90;;;;;;5111177;28;20024;-47
2021/11/18 03:51:50;;;;;;;42.83;15.27;;;6.90;99.90;;;;;;5112880;27;20720;-47
2021/11/18 03:54:18;;;;;;;45.65;14.00;;;6.90;99.90;;;;;;5112953;28;20045;-47
2021/11/18 03:56:44;;;;;;;35.85;13.82;;;6.90;99.90;;;;;;5101088;28;20063;-46
2021/11/18 03:59:13;;;;;;;35.65;14.23;;;6.90;99.90;;;;;;5109242;28;20019;-48
2021/11/18 04:01:40;;;;;;;43.20;14.95;;;6.90;99.90;;;;;;5112351;28;20023;-49
2021/11/18 04:04:08;;;;;;;41.58;15.70;;;6.90;99.90;;;;;;5112862;28;20066;-48
2021/11/18 04:06:33;;;;;;;41.45;14.27;;;6.90;99.90;;;;;;5112757;27;20062;-46
2021/11/18 04:09:00;;;;;;;33.05;13.40;;;6.90;99.90;;;;;;5102263;28;20051;-46
2021/11/18 04:11:27;;;;;;;41.00;14.80;;;6.90;99.90;;;;;;5091785;28;20031;-46
2021/11/18 04:13:53;;;;;;;41.38;15.45;;;6.90;99.90;;;;;;5089753;28;20040;-50
2021/11/18 04:16:18;;;;;;;48.53;15.23;;;6.90;99.90;;;;;;5091347;28;20076;-47
2021/11/18 04:18:44;;;;;;;39.83;13.63;;;6.90;99.90;;;;;;5091053;28;20546;-47
2021/11/18 04:21:10;;;;;;;42.17;13.38;;;7.00;99.90;;;;;;5091533;28;20050;-48
2021/11/18 04:23:36;;;;;;;39.78;13.60;;;7.00;99.90;;;;;;5091598;28;20111;-47
2021/11/18 04:26:04;;;;;;;40.63;14.10;;;7.00;99.90;;;;;;5090573;28;20095;-46
2021/11/18 04:28:30;;;;;;;29.15;12.75;;;7.10;99.90;;;;;;5098810;28;20027;-47
2021/11/18 04:30:59;;;;;;;44.35;14.60;;;7.10;99.90;;;;;;5071507;28;20024;-47
2021/11/18 04:33:26;;;;;;;43.22;13.80;;;7.10;99.90;;;;;;5091297;28;20126;-46
2021/11/18 04:35:53;;;;;;;37.67;14.02;;;7.10;99.90;;;;;;5091057;28;20036;-48
2021/11/18 04:38:19;;;;;;;44.55;14.00;;;7.10;99.90;;;;;;5091667;28;20130;-49
2021/11/18 04:40:44;;;;;;;33.92;12.85;;;7.10;99.90;;;;;;5090403;28;20032;-47
2021/11/18 04:43:10;;;;;;;43.95;13.43;;;7.20;99.90;;;;;;5090418;28;20028;-47
2021/11/18 04:45:36;;;;;;;38.33;14.23;;;7.20;99.90;;;;;;5090327;28;20028;-46
2021/11/18 04:48:02;;;;;;;44.97;13.95;;;7.20;99.90;;;;;;5090190;28;20023;-48
2021/11/18 04:50:28;;;;;;;41.50;15.13;;;7.20;99.90;;;;;;5089488;28;20036;-47
2021/11/18 04:52:54;;;;;;;38.65;13.95;;;7.20;99.90;;;;;;5088804;28;20016;-47
2021/11/18 04:55:23;;;;;;;38.83;12.95;;;7.30;99.90;;;;;;5091447;28;20080;-49
2021/11/18 04:57:50;;;;;;;42.75;15.05;;;7.30;99.90;;;;;;5103159;28;20031;-47
2021/11/18 05:00:41;;;;;;;34.60;12.75;;;7.30;99.90;;;;;;5111287;28;20457;-47
2021/11/18 05:03:07;;;;;;;32.22;12.70;;;7.30;99.90;;;;;;5111690;28;20039;-48
2021/11/18 05:05:33;;;;;;;37.60;14.23;;;7.30;99.90;;;;;;5110419;28;20065;-48
2021/11/18 05:07:59;;;;;;;37.92;12.98;;;7.30;99.90;;;;;;5110427;28;20027;-48
2021/11/18 05:10:26;;;;;;;38.13;13.00;;;7.30;99.90;;;;;;5110788;28;20534;-48
2021/11/18 05:12:52;;;;;;;33.47;12.98;;;7.30;99.90;;;;;;5110222;28;20020;-47
2021/11/18 05:15:20;;;;;;;37.35;13.40;;;7.30;99.90;;;;;;5111212;28;20077;-47
2021/11/18 05:17:46;;;;;;;60.55;15.60;;;7.30;99.90;;;;;;5111433;28;20409;-47
2021/11/18 05:20:13;;;;;;;35.92;12.65;;;7.40;99.90;;;;;;5110680;28;20032;-48
2021/11/18 05:22:39;;;;;;;36.25;14.13;;;7.30;99.90;;;;;;5110610;28;20675;-50
2021/11/18 05:25:05;;;;;;;34.65;13.93;;;7.30;99.90;;;;;;5109533;28;20078;-49
2021/11/18 05:27:31;;;;;;;41.60;14.52;;;7.30;99.90;;;;;;5102237;28;20487;-48
2021/11/18 05:29:57;;;;;;;42.13;14.05;;;7.30;99.90;;;;;;5110565;28;20039;-48
2021/11/18 05:32:22;;;;;;;43.45;15.65;;;7.30;99.90;;;;;;5091002;28;20031;-49
2021/11/18 05:34:48;;;;;;;55.53;16.65;;;7.30;99.90;;;;;;5089685;28;20494;-49
2021/11/18 05:37:13;;;;;;;44.70;16.35;;;7.40;99.90;;;;;;5088194;28;20107;-47
2021/11/18 05:39:39;;;;;;;37.25;15.45;;;7.40;99.90;;;;;;5090098;28;20066;-48
2021/11/18 05:42:05;;;;;;;41.22;15.32;;;7.40;99.90;;;;;;5090320;28;20034;-49
2021/11/18 05:44:31;;;;;;;43.72;16.08;;;7.40;99.90;;;;;;5090588;28;20584;-50
2021/11/18 05:46:56;;;;;;;49.05;17.13;;;7.50;99.90;;;;;;5090647;28;20032;-47
2021/11/18 05:49:22;;;;;;;40.40;17.88;;;7.50;99.90;;;;;;5090206;28;20556;-47
2021/11/18 05:51:48;;;;;;;43.50;17.15;;;7.50;99.90;;;;;;5090591;28;20020;-47
2021/11/18 05:54:15;;;;;;;48.42;16.77;;;7.50;99.90;;;;;;5089442;28;20028;-47
2021/11/18 05:56:42;;;;;;;44.22;16.38;;;7.60;99.90;;;;;;5096038;28;20032;-48
2021/11/18 05:59:09;;;;;;;38.20;14.27;;;7.60;99.90;;;;;;5101730;28;20023;-48
2021/11/18 06:01:36;;;;;;;41.22;14.95;;;7.60;99.90;;;;;;5110856;28;20530;-49
2021/11/18 06:04:02;;;;;;;39.33;15.63;;;7.70;99.90;;;;;;5096110;28;20036;-47
2021/11/18 06:06:28;;;;;;;33.78;15.27;;;7.60;99.90;;;;;;5089725;28;20028;-48
2021/11/18 06:08:54;;;;;;;35.80;13.95;;;7.70;99.90;;;;;;5089836;28;20020;-50
2021/11/18 06:11:19;;;;;;;42.88;15.60;;;7.80;99.90;;;;;;5090276;28;20089;-49
2021/11/18 06:13:50;;;;;;;52.47;16.77;;;7.80;99.90;;;;;;5090143;28;20098;-48
2021/11/18 06:16:16;;;;;;;48.42;16.90;;;7.80;99.90;;;;;;5090375;28;20038;-49
2021/11/18 06:18:42;;;;;;;51.15;17.20;;;7.90;99.90;;;;;;5088464;28;20489;-50
2021/11/18 06:21:07;;;;;;;44.55;14.88;;;7.80;99.90;;;;;;5090244;28;20085;-48
2021/11/18 06:23:33;;;;;;;46.92;17.70;;;7.90;99.90;;;;;;5090169;28;20039;-47
2021/11/18 06:25:59;;;;;;;52.75;17.08;;;7.90;99.90;;;;;;5082410;28;20039;-48
2021/11/18 06:28:24;;;;;;;45.70;16.38;;;7.90;99.90;;;;;;5101435;28;20016;-48
2021/11/18 06:30:54;;;;;;;33.33;16.38;;;7.90;99.90;;;;;;5108831;28;20027;-49
2021/11/18 06:33:20;;;;;;;51.20;17.08;;;7.90;99.90;;;;;;5109006;28;20615;-49
2021/11/18 06:35:47;;;;;;;44.25;17.20;;;8.00;99.90;;;;;;5113553;28;20032;-49
2021/11/18 06:38:13;;;;;;;41.83;17.33;;;8.00;99.90;;;;;;5114640;28;20050;-50
2021/11/18 06:40:38;;;;;;;45.90;16.33;;;8.00;99.90;;;;;;5113344;28;20035;-48
2021/11/18 06:43:05;;;;;;;52.08;18.00;;;8.00;99.90;;;;;;5114420;28;20024;-47
2021/11/18 06:45:36;;;;;;;36.38;16.17;;;8.00;99.90;;;;;;5114495;28;20031;-50
2021/11/18 06:48:03;;;;;;;44.58;15.75;;;8.00;99.90;;;;;;5104803;28;20024;-49
2021/11/18 06:50:28;;;;;;;49.13;18.30;;;8.00;99.90;;;;;;5106406;28;20015;-48
2021/11/18 06:52:54;;;;;;;43.22;17.85;;;8.00;99.90;;;;;;5114651;28;20054;-51
2021/11/18 06:55:20;;;;;;;35.15;17.27;;;8.10;99.90;;;;;;5112110;28;20396;-49
2021/11/18 06:57:49;;;;;;;50.10;17.58;;;8.10;99.90;;;;;;5102032;28;20027;-50
2021/11/18 07:00:16;;;;;;;45.13;17.23;;;8.10;99.90;;;;;;5112720;28;20073;-48
2021/11/18 07:02:41;;;;;;;49.83;17.83;;;8.10;99.90;;;;;;5114270;28;20016;-49
2021/11/18 07:05:07;;;;;;;45.42;18.48;;;8.10;99.90;;;;;;5114309;27;20569;-48
2021/11/18 07:07:32;;;;;;;45.30;18.45;;;8.20;99.90;;;;;;5114145;28;20024;-48
2021/11/18 07:10:01;;;;;;;40.15;18.95;;;8.20;99.90;;;;;;5112037;28;20023;-49
2021/11/18 07:12:28;;;;;;;49.78;19.42;;;8.20;99.90;;;;;;5113760;28;20079;-51
2021/11/18 07:14:54;;;;;;;54.72;18.75;;;8.20;99.90;;;;;;5113783;28;20035;-50
2021/11/18 07:17:20;;;;;;;43.20;17.80;;;8.20;99.90;;;;;;5113969;28;20561;-49
2021/11/18 07:19:47;;;;;;;46.05;19.05;;;8.30;99.90;;;;;;5113336;28;20080;-49
2021/11/18 07:22:14;;;;;;;49.63;18.77;;;8.40;99.90;;;;;;5113831;28;20092;-49
2021/11/18 07:24:39;;;;;;;50.22;18.10;;;8.40;99.90;;;;;;5113762;28;20733;-48
2021/11/18 07:27:05;;;;;;;52.33;20.15;;;8.40;99.90;;;;;;5105780;28;20031;-48
2021/11/18 07:29:31;;;;;;;42.63;19.65;;;8.40;99.90;;;;;;5105761;28;20390;-48
2021/11/18 07:31:56;;;;;;;48.67;19.95;;;8.40;99.90;;;;;;5113696;28;20069;-48
2021/11/18 07:34:22;;;;;;;53.17;19.35;;;8.40;99.90;;;;;;5113759;28;20030;-49
2021/11/18 07:36:48;;;;;;;59.78;20.10;;;8.30;99.90;;;;;;5113657;28;20054;-50
2021/11/18 07:39:18;;;;;;;55.45;20.58;;;8.40;99.90;;;;;;5111303;28;20035;-50
2021/11/18 07:41:45;;;;;;;45.15;21.45;;;8.40;99.90;;;;;;5113294;28;20020;-49
2021/11/18 07:44:12;;;;;;;56.75;22.10;;;8.30;99.90;;;;;;5113472;28;20081;-49
2021/11/18 07:46:38;;;;;;;41.13;20.65;;;8.40;99.90;;;;;;5112954;28;20028;-48
2021/11/18 07:49:05;;;;;;;44.33;19.77;;;8.40;99.90;;;;;;5112832;28;20102;-50
2021/11/18 07:51:30;;;;;;;47.33;20.45;;;8.40;99.90;;;;;;5113442;28;20030;-48
2021/11/18 07:53:56;;;;;;;54.05;22.63;;;8.50;99.90;;;;;;5113370;28;20024;-49
2021/11/18 07:56:23;;;;;;;47.08;21.58;;;8.50;99.90;;;;;;5100040;28;20030;-48
2021/11/18 07:58:49;;;;;;;45.45;20.70;;;8.50;99.90;;;;;;5104078;28;20123;-48
2021/11/18 08:01:15;;;;;;;52.80;21.95;;;8.60;99.90;;;;;;5113191;28;20062;-49
2021/11/18 08:03:41;;;;;;;46.15;20.90;;;8.60;99.90;;;;;;5113094;28;20034;-48
2021/11/18 08:06:10;;;;;;;46.08;20.92;;;8.70;99.90;;;;;;5113069;28;20020;-48
2021/11/18 08:08:38;;;;;;;44.95;21.20;;;8.80;99.90;;;;;;5112390;28;20024;-48
2021/11/18 08:11:04;;;;;;;49.10;20.75;;;8.80;99.90;;;;;;5112588;28;20024;-50
2021/11/18 08:13:29;;;;;;;43.50;20.02;;;8.80;99.90;;;;;;5112900;28;20076;-50
2021/11/18 08:15:55;;;;;;;44.90;20.08;;;8.80;99.90;;;;;;5112899;28;20027;-49
2021/11/18 08:18:21;;;;;;;43.40;20.48;;;8.80;99.90;;;;;;5112190;28;20038;-49
2021/11/18 08:20:46;;;;;;;51.80;19.75;;;8.90;99.90;;;;;;5112218;28;20055;-51
2021/11/18 08:23:12;;;;;;;50.63;19.70;;;9.00;99.90;;;;;;5112954;28;20096;-48
2021/11/18 08:25:38;;;;;;;50.08;20.85;;;9.10;99.90;;;;;;5109982;28;20035;-50
2021/11/18 08:28:04;;;;;;;49.45;18.23;;;9.30;99.90;;;;;;5101111;28;20035;-49
2021/11/18 08:30:32;;;;;;;38.28;18.58;;;9.50;99.90;;;;;;5111775;28;20023;-51
2021/11/18 08:33:01;;;;;;;47.33;19.13;;;9.60;99.90;;;;;;5112504;28;20031;-49
2021/11/18 08:35:33;;;;;;;43.00;17.77;;;9.70;99.90;;;;;;5112245;28;20047;-50
2021/11/18 08:38:02;;;;;;;39.60;18.25;;;9.60;99.90;;;;;;5112531;28;20015;-51
2021/11/18 08:40:28;;;;;;;43.30;18.13;;;9.60;99.90;;;;;;5111944;28;20082;-48
2021/11/18 08:42:54;;;;;;;42.97;17.85;;;9.70;99.90;;;;;;5112151;28;20028;-49
2021/11/18 08:45:21;;;;;;;38.00;17.50;;;9.80;99.90;;;;;;5112484;28;20039;-50
2021/11/18 08:47:47;;;;;;;42.28;16.88;;;9.90;99.90;;;;;;5112220;28;20018;-49
2021/11/18 08:50:17;;;;;;;40.75;17.65;;;9.90;99.90;;;;;;5111920;28;20027;-49
2021/11/18 08:52:42;;;;;;;38.40;17.60;;;9.90;99.90;;;;;;5111869;28;20469;-48
2021/11/18 08:55:13;;;;;;;41.53;19.05;;;9.90;99.90;;;;;;5109743;28;20111;-51
2021/11/18 08:57:39;;;;;;;46.97;19.63;;;9.80;99.90;;;;;;5097179;28;20076;-49
2021/11/18 09:00:09;;;;;;;43.72;19.13;;;9.90;99.90;;;;;;5092327;28;20031;-48
2021/11/18 09:02:35;;;;;;;49.67;20.38;;;9.80;99.90;;;;;;5091396;28;20020;-50
2021/11/18 09:05:01;;;;;;;38.17;18.80;;;9.80;99.90;;;;;;5091376;28;20057;-48
2021/11/18 09:07:27;;;;;;;47.05;20.60;;;9.80;99.90;;;;;;5091529;28;20024;-50
2021/11/18 09:09:52;;;;;;;44.35;20.60;;;9.70;99.90;;;;;;5090517;28;20171;-49
2021/11/18 09:12:18;;;;;;;50.45;22.92;;;9.80;99.90;;;;;;5086771;28;20099;-49
2021/11/18 09:14:44;;;;;;;56.40;20.80;;;9.80;99.90;;;;;;5091086;28;20028;-49
2021/11/18 09:17:11;;;;;;;52.10;21.00;;;9.90;99.90;;;;;;5091127;28;20059;-50
2021/11/18 09:19:39;;;;;;;47.20;20.05;;;9.80;99.90;;;;;;5090579;28;20035;-48
2021/11/18 09:22:07;;;;;;;52.55;22.17;;;9.90;99.90;;;;;;5091165;28;20058;-50
2021/11/18 09:24:38;;;;;;;43.85;21.08;;;9.90;99.90;;;;;;5091130;28;20030;-50
2021/11/18 09:27:15;;;;;;;49.15;21.92;;;10.10;99.90;;;;;;5097883;28;20026;-49
2021/11/18 09:29:41;;;;;;;54.78;21.60;;;10.20;99.90;;;;;;5104727;28;20027;-49
2021/11/18 09:32:07;;;;;;;47.17;19.05;;;10.30;99.90;;;;;;5111422;28;20453;-50
2021/11/18 09:34:33;;;;;;;43.35;21.25;;;10.30;99.90;;;;;;5111318;28;20047;-49
2021/11/18 09:36:59;;;;;;;48.67;20.08;;;10.40;99.90;;;;;;5111260;28;20112;-49
2021/11/18 09:39:25;;;;;;;53.17;20.65;;;10.50;99.90;;;;;;5110615;28;20032;-49
2021/11/18 09:41:57;;;;;;;46.75;19.60;;;10.50;99.90;;;;;;5110866;28;20120;-49
2021/11/18 09:44:54;;;;;;;48.17;20.33;;;10.40;99.90;;;;;;5111026;28;20027;-51
2021/11/18 09:47:48;;;;;;;55.05;21.38;;;10.30;99.90;;;;;;5109823;28;20054;-49
2021/11/18 09:50:33;;;;;;;44.38;19.23;;;10.50;99.90;;;;;;5110075;28;20020;-49
2021/11/18 09:53:23;;;;;;;52.13;20.80;;;10.50;99.90;;;;;;5110804;28;20485;-51
2021/11/18 09:56:40;;;;;;;56.57;20.33;;;10.50;99.90;;;;;;5106662;28;20028;-48
2021/11/18 09:59:32;;;;;;;56.05;20.70;;;10.40;99.90;;;;;;5047096;28;20024;-49
2021/11/18 10:02:33;;;;;;;46.30;19.88;;;10.50;99.90;;;;;;5067139;28;20048;-51
2021/11/18 10:05:04;;;;;;;54.45;19.67;;;10.50;99.90;;;;;;5089498;28;20660;-50
2021/11/18 10:07:52;;;;;;;44.15;17.52;;;10.70;99.90;;;;;;5090331;28;20047;-50
2021/11/18 10:10:38;;;;;;;45.72;19.02;;;11.10;99.90;;;;;;5088178;28;20023;-48
2021/11/18 10:13:30;;;;;;;45.78;19.60;;;11.50;99.90;;;;;;5089966;28;20099;-49
2021/11/18 10:16:29;;;;;;;35.15;17.52;;;11.70;99.90;;;;;;5090084;28;20418;-49
2021/11/18 10:19:01;;;;;;;36.05;16.15;;;12.20;99.90;;;;;;5089283;28;20116;-50
2021/11/18 10:21:33;;;;;;;46.13;17.15;;;12.70;99.90;;;;;;5088921;28;20020;-52
2021/11/18 10:24:08;;;;;;;47.97;17.25;;;12.60;99.90;;;;;;5090013;28;20655;-50
2021/11/18 10:26:48;;;;;;;36.08;16.50;;;12.70;99.90;;;;;;5094933;28;20059;-48
2021/11/18 10:29:24;;;;;;;42.90;18.50;;;12.50;99.90;;;;;;5101343;28;20420;-49
2021/11/18 10:31:55;;;;;;;38.85;17.90;;;12.50;99.90;;;;;;5106032;28;20355;-48
2021/11/18 10:34:41;;;;;;;46.40;18.48;;;12.20;99.90;;;;;;5089897;28;20055;-48
2021/11/18 10:37:34;;;;;;;44.95;18.98;;;11.90;99.90;;;;;;5090218;28;20035;-47
2021/11/18 10:40:22;;;;;;;44.20;18.48;;;11.80;99.90;;;;;;5089225;28;20036;-49
2021/11/18 10:42:49;;;;;;;47.10;18.35;;;11.50;99.90;;;;;;5087810;28;20660;-49
2021/11/18 10:45:26;;;;;;;54.63;18.67;;;11.40;99.90;;;;;;5089301;28;20081;-48
2021/11/18 10:48:03;;;;;;;47.28;18.42;;;11.30;99.90;;;;;;5089348;28;20032;-51
2021/11/18 10:50:54;;;;;;;57.35;19.60;;;11.20;99.90;;;;;;5088409;28;20025;-49
2021/11/18 10:53:26;;;;;;;56.80;18.08;;;11.00;99.90;;;;;;5089369;28;20070;-49
2021/11/18 10:56:11;;;;;;;38.83;17.42;;;11.00;99.90;;;;;;5085218;28;20024;-50
2021/11/18 10:58:59;;;;;;;43.30;17.58;;;11.20;99.90;;;;;;5089258;28;20036;-48
2021/11/18 11:01:25;;;;;;;36.72;17.17;;;11.30;99.90;;;;;;5089433;28;20097;-50
2021/11/18 11:03:52;;;;;;;41.85;16.83;;;11.40;99.90;;;;;;5089131;28;20024;-51
2021/11/18 11:06:48;;;;;;;39.65;17.85;;;11.60;99.90;;;;;;5089415;28;20024;-48
2021/11/18 11:09:20;;;;;;;45.55;17.63;;;12.00;99.90;;;;;;5094514;28;20039;-50
2021/11/18 11:12:13;;;;;;;34.97;15.77;;;12.40;99.90;;;;;;5097807;28;20023;-48
2021/11/18 11:14:41;;;;;;;49.30;17.08;;;13.00;99.90;;;;;;5093633;28;20020;-48
2021/11/18 11:17:35;;;;;;;34.95;15.82;;;13.10;99.90;;;;;;5098855;28;20027;-48
2021/11/18 11:20:04;;;;;;;40.30;15.60;;;13.10;99.90;;;;;;5096902;28;20027;-49
2021/11/18 11:22:44;;;;;;;31.88;15.05;;;13.10;99.90;;;;;;5101932;28;20027;-48
2021/11/18 11:25:32;;;;;;;36.33;14.95;;;13.00;99.90;;;;;;5105776;28;20027;-48
2021/11/18 11:28:02;;;;;;;43.85;15.88;;;12.90;99.90;;;;;;5100845;28;20053;-48
2021/11/18 11:30:59;;;;;;;43.97;15.05;;;12.80;99.90;;;;;;5092004;28;20012;-49
2021/11/18 11:33:43;;;;;;;48.05;15.98;;;12.30;99.90;;;;;;5091615;28;20051;-48
2021/11/18 11:36:17;;;;;;;37.15;16.02;;;12.00;99.90;;;;;;5092948;28;20024;-48
2021/11/18 11:39:30;;;;;;;45.33;16.38;;;11.90;99.90;;;;;;5092497;28;20032;-51
2021/11/18 11:42:31;;;;;;;40.92;16.25;;;11.80;99.90;;;;;;5090171;28;20505;-48
2021/11/18 11:45:24;;;;;;;36.72;16.00;;;11.70;99.90;;;;;;5087241;28;20083;-50
2021/11/18 11:48:04;;;;;;;37.08;15.98;;;11.40;99.90;;;;;;5092891;28;20024;-48
2021/11/18 11:50:51;;;;;;;52.22;17.52;;;11.50;99.90;;;;;;5091798;28;20030;-50
2021/11/18 11:53:21;;;;;;;39.33;15.50;;;11.70;99.90;;;;;;5092441;28;20081;-48
2021/11/18 11:56:06;;;;;;;44.05;16.17;;;11.60;99.90;;;;;;5094546;28;20028;-48
2021/11/18 11:58:38;;;;;;;38.15;14.80;;;11.60;99.90;;;;;;5089170;28;20031;-49
2021/11/18 12:01:19;;;;;;;36.97;15.32;;;11.50;99.90;;;;;;5092234;28;20034;-48
2021/11/18 12:04:20;;;;;;;39.55;16.55;;;11.50;99.90;;;;;;5107319;28;20046;-50
2021/11/18 12:06:55;;;;;;;35.15;15.25;;;11.40;99.90;;;;;;5112682;28;20020;-48
2021/11/18 12:09:33;;;;;;;36.65;14.55;;;11.40;99.90;;;;;;5106414;28;20028;-48
2021/11/18 12:12:27;;;;;;;40.53;15.25;;;11.40;99.90;;;;;;5071704;28;20024;-48
2021/11/18 12:14:53;;;;;;;35.70;15.95;;;11.30;99.90;;;;;;5077344;28;20083;-49
2021/11/18 12:17:31;;;;;;;43.25;16.95;;;11.30;99.90;;;;;;5104164;28;20405;-48
2021/11/18 12:20:02;;;;;;;40.47;16.58;;;11.30;99.90;;;;;;5098711;28;20397;-48
2021/11/18 12:22:33;;;;;;;37.03;14.02;;;11.10;99.90;;;;;;5093716;28;20024;-48
2021/11/18 12:25:17;;;;;;;34.40;15.43;;;11.20;99.90;;;;;;5090340;28;20041;-48
2021/11/18 12:27:51;;;;;;;34.10;13.65;;;11.20;99.90;;;;;;5094660;28;20152;-48
2021/11/18 12:30:53;;;;;;;33.45;14.93;;;11.20;99.90;;;;;;5104832;28;20423;-48
2021/11/18 12:33:18;;;;;;;36.85;16.27;;;11.20;99.90;;;;;;5090289;28;20052;-47
2021/11/18 12:35:56;;;;;;;51.10;16.10;;;11.30;99.90;;;;;;5112042;28;20115;-50
2021/11/18 12:38:39;;;;;;;48.08;16.50;;;11.40;99.90;;;;;;5083142;27;20016;-48
2021/11/18 12:41:13;;;;;;;31.52;14.77;;;11.50;99.90;;;;;;5081626;28;20035;-48
2021/11/18 12:43:56;;;;;;;30.38;15.30;;;11.60;99.90;;;;;;5111348;28;20019;-48
2021/11/18 12:46:31;;;;;;;42.97;15.90;;;11.60;99.90;;;;;;5108908;28;20134;-47
2021/11/18 12:49:00;;;;;;;40.63;14.68;;;11.50;99.90;;;;;;5082612;28;20025;-48